sensor_id;sensor_type;location;lat;lon;timestamp;P1;durP1;ratioP1;P2;durP2;ratioP2
12076;SDS011;12420;42.676;23.262;2023-11-22T00:00:44;23.23;;;16.27;;
12076;SDS011;12420;42.676;23.262;2023-11-22T00:03:11;25.00;;;16.70;;
12076;SDS011;12420;42.676;23.262;2023-11-22T00:05:38;26.37;;;16.70;;
12076;SDS011;12420;42.676;23.262;2023-11-22T00:08:04;23.87;;;16.53;;
12076;SDS011;12420;42.676;23.262;2023-11-22T00:10:33;24.30;;;16.87;;
12076;SDS011;12420;42.676;23.262;2023-11-22T00:13:00;21.33;;;16.30;;
12076;SDS011;12420;42.676;23.262;2023-11-22T00:15:27;21.50;;;16.13;;
12076;SDS011;12420;42.676;23.262;2023-11-22T00:17:54;21.40;;;15.97;;
12076;SDS011;12420;42.676;23.262;2023-11-22T00:20:22;20.73;;;15.97;;
12076;SDS011;12420;42.676;23.262;2023-11-22T00:22:49;21.07;;;15.33;;
12076;SDS011;12420;42.676;23.262;2023-11-22T00:25:16;20.63;;;15.13;;
12076;SDS011;12420;42.676;23.262;2023-11-22T00:27:46;21.67;;;16.30;;
12076;SDS011;12420;42.676;23.262;2023-11-22T00:30:13;20.73;;;15.30;;
12076;SDS011;12420;42.676;23.262;2023-11-22T00:32:40;20.20;;;15.43;;
12076;SDS011;12420;42.676;23.262;2023-11-22T00:35:07;20.53;;;15.77;;
12076;SDS011;12420;42.676;23.262;2023-11-22T00:37:34;21.47;;;15.17;;
12076;SDS011;12420;42.676;23.262;2023-11-22T00:40:01;21.37;;;14.93;;
12076;SDS011;12420;42.676;23.262;2023-11-22T00:42:35;19.60;;;15.33;;
12076;SDS011;12420;42.676;23.262;2023-11-22T00:45:04;19.37;;;15.03;;
12076;SDS011;12420;42.676;23.262;2023-11-22T00:47:32;21.73;;;15.40;;
12076;SDS011;12420;42.676;23.262;2023-11-22T00:49:59;19.73;;;14.67;;
12076;SDS011;12420;42.676;23.262;2023-11-22T00:52:26;20.97;;;15.73;;
12076;SDS011;12420;42.676;23.262;2023-11-22T00:54:52;21.67;;;15.73;;
12076;SDS011;12420;42.676;23.262;2023-11-22T00:57:19;21.07;;;15.10;;
12076;SDS011;12420;42.676;23.262;2023-11-22T00:59:46;20.47;;;15.63;;
12076;SDS011;12420;42.676;23.262;2023-11-22T01:02:14;21.70;;;15.20;;
12076;SDS011;12420;42.676;23.262;2023-11-22T01:04:41;21.70;;;14.80;;
12076;SDS011;12420;42.676;23.262;2023-11-22T01:07:08;23.77;;;15.60;;
12076;SDS011;12420;42.676;23.262;2023-11-22T01:09:35;19.87;;;15.47;;
12076;SDS011;12420;42.676;23.262;2023-11-22T01:12:02;20.27;;;15.30;;
12076;SDS011;12420;42.676;23.262;2023-11-22T01:14:29;19.10;;;14.40;;
12076;SDS011;12420;42.676;23.262;2023-11-22T01:16:56;21.60;;;14.60;;
12076;SDS011;12420;42.676;23.262;2023-11-22T01:19:24;20.03;;;15.03;;
12076;SDS011;12420;42.676;23.262;2023-11-22T01:21:51;20.03;;;15.33;;
12076;SDS011;12420;42.676;23.262;2023-11-22T01:24:18;19.97;;;14.57;;
12076;SDS011;12420;42.676;23.262;2023-11-22T01:26:45;21.70;;;15.23;;
12076;SDS011;12420;42.676;23.262;2023-11-22T01:29:11;20.80;;;14.83;;
12076;SDS011;12420;42.676;23.262;2023-11-22T01:31:38;19.30;;;13.93;;
12076;SDS011;12420;42.676;23.262;2023-11-22T01:34:07;19.37;;;14.93;;
12076;SDS011;12420;42.676;23.262;2023-11-22T01:36:35;19.17;;;14.47;;
12076;SDS011;12420;42.676;23.262;2023-11-22T01:39:01;19.57;;;14.57;;
12076;SDS011;12420;42.676;23.262;2023-11-22T01:41:28;20.63;;;15.17;;
12076;SDS011;12420;42.676;23.262;2023-11-22T01:43:56;26.33;;;15.13;;
12076;SDS011;12420;42.676;23.262;2023-11-22T01:46:23;17.97;;;14.40;;
12076;SDS011;12420;42.676;23.262;2023-11-22T01:48:51;21.83;;;14.37;;
12076;SDS011;12420;42.676;23.262;2023-11-22T01:51:20;19.83;;;14.33;;
12076;SDS011;12420;42.676;23.262;2023-11-22T01:53:48;18.07;;;14.83;;
12076;SDS011;12420;42.676;23.262;2023-11-22T01:56:19;23.43;;;15.60;;
12076;SDS011;12420;42.676;23.262;2023-11-22T01:58:46;19.17;;;14.50;;
12076;SDS011;12420;42.676;23.262;2023-11-22T02:01:14;21.03;;;14.90;;
12076;SDS011;12420;42.676;23.262;2023-11-22T02:03:41;21.97;;;14.70;;
12076;SDS011;12420;42.676;23.262;2023-11-22T02:06:08;19.43;;;15.37;;
12076;SDS011;12420;42.676;23.262;2023-11-22T02:08:36;18.23;;;14.03;;
12076;SDS011;12420;42.676;23.262;2023-11-22T02:11:05;18.20;;;13.40;;
12076;SDS011;12420;42.676;23.262;2023-11-22T02:13:32;18.73;;;14.17;;
12076;SDS011;12420;42.676;23.262;2023-11-22T02:15:59;18.63;;;14.23;;
12076;SDS011;12420;42.676;23.262;2023-11-22T02:18:27;17.70;;;14.27;;
12076;SDS011;12420;42.676;23.262;2023-11-22T02:20:54;18.23;;;13.97;;
12076;SDS011;12420;42.676;23.262;2023-11-22T02:23:23;17.53;;;13.93;;
12076;SDS011;12420;42.676;23.262;2023-11-22T02:25:49;19.50;;;13.97;;
12076;SDS011;12420;42.676;23.262;2023-11-22T02:28:16;17.33;;;13.67;;
12076;SDS011;12420;42.676;23.262;2023-11-22T02:30:43;18.53;;;13.50;;
12076;SDS011;12420;42.676;23.262;2023-11-22T02:33:11;18.63;;;14.00;;
12076;SDS011;12420;42.676;23.262;2023-11-22T02:35:38;17.33;;;14.70;;
12076;SDS011;12420;42.676;23.262;2023-11-22T02:38:06;18.73;;;13.97;;
12076;SDS011;12420;42.676;23.262;2023-11-22T02:40:33;18.10;;;14.27;;
12076;SDS011;12420;42.676;23.262;2023-11-22T02:42:59;19.53;;;15.40;;
12076;SDS011;12420;42.676;23.262;2023-11-22T02:45:30;21.50;;;15.60;;
12076;SDS011;12420;42.676;23.262;2023-11-22T02:47:57;23.10;;;16.80;;
12076;SDS011;12420;42.676;23.262;2023-11-22T02:50:26;21.07;;;15.73;;
12076;SDS011;12420;42.676;23.262;2023-11-22T02:52:54;21.07;;;14.83;;
12076;SDS011;12420;42.676;23.262;2023-11-22T02:55:21;18.00;;;14.30;;
12076;SDS011;12420;42.676;23.262;2023-11-22T02:57:50;20.67;;;13.90;;
12076;SDS011;12420;42.676;23.262;2023-11-22T03:00:17;21.13;;;15.30;;
12076;SDS011;12420;42.676;23.262;2023-11-22T03:02:45;19.17;;;13.60;;
12076;SDS011;12420;42.676;23.262;2023-11-22T03:05:11;20.43;;;14.63;;
12076;SDS011;12420;42.676;23.262;2023-11-22T03:07:39;19.27;;;14.50;;
12076;SDS011;12420;42.676;23.262;2023-11-22T03:10:06;18.57;;;14.30;;
12076;SDS011;12420;42.676;23.262;2023-11-22T03:12:34;20.90;;;14.10;;
12076;SDS011;12420;42.676;23.262;2023-11-22T03:15:02;22.20;;;13.37;;
12076;SDS011;12420;42.676;23.262;2023-11-22T03:17:30;20.63;;;14.57;;
12076;SDS011;12420;42.676;23.262;2023-11-22T03:19:58;19.27;;;14.10;;
12076;SDS011;12420;42.676;23.262;2023-11-22T03:22:25;20.17;;;14.43;;
12076;SDS011;12420;42.676;23.262;2023-11-22T03:24:55;20.37;;;14.30;;
12076;SDS011;12420;42.676;23.262;2023-11-22T03:27:23;18.63;;;13.53;;
12076;SDS011;12420;42.676;23.262;2023-11-22T03:29:51;21.80;;;13.73;;
12076;SDS011;12420;42.676;23.262;2023-11-22T03:32:19;21.70;;;13.53;;
12076;SDS011;12420;42.676;23.262;2023-11-22T03:34:46;20.33;;;13.60;;
12076;SDS011;12420;42.676;23.262;2023-11-22T03:37:14;20.20;;;13.27;;
12076;SDS011;12420;42.676;23.262;2023-11-22T03:39:43;19.53;;;12.67;;
12076;SDS011;12420;42.676;23.262;2023-11-22T03:42:13;17.63;;;13.33;;
12076;SDS011;12420;42.676;23.262;2023-11-22T03:44:39;19.37;;;13.07;;
12076;SDS011;12420;42.676;23.262;2023-11-22T03:47:06;18.63;;;13.33;;
12076;SDS011;12420;42.676;23.262;2023-11-22T03:49:34;17.93;;;12.57;;
12076;SDS011;12420;42.676;23.262;2023-11-22T03:52:01;17.03;;;12.50;;
12076;SDS011;12420;42.676;23.262;2023-11-22T03:54:28;17.67;;;12.50;;
12076;SDS011;12420;42.676;23.262;2023-11-22T03:56:55;19.93;;;13.03;;
12076;SDS011;12420;42.676;23.262;2023-11-22T03:59:21;18.13;;;12.20;;
12076;SDS011;12420;42.676;23.262;2023-11-22T04:01:49;17.43;;;11.77;;
12076;SDS011;12420;42.676;23.262;2023-11-22T04:04:16;16.17;;;11.80;;
12076;SDS011;12420;42.676;23.262;2023-11-22T04:06:45;15.63;;;11.80;;
12076;SDS011;12420;42.676;23.262;2023-11-22T04:09:13;17.03;;;11.83;;
12076;SDS011;12420;42.676;23.262;2023-11-22T04:11:42;18.30;;;12.33;;
12076;SDS011;12420;42.676;23.262;2023-11-22T04:14:08;18.30;;;11.80;;
12076;SDS011;12420;42.676;23.262;2023-11-22T04:16:35;15.73;;;11.23;;
12076;SDS011;12420;42.676;23.262;2023-11-22T04:19:02;15.90;;;11.00;;
12076;SDS011;12420;42.676;23.262;2023-11-22T04:21:29;16.43;;;11.03;;
12076;SDS011;12420;42.676;23.262;2023-11-22T04:23:57;13.63;;;10.80;;
12076;SDS011;12420;42.676;23.262;2023-11-22T04:26:24;13.83;;;10.30;;
12076;SDS011;12420;42.676;23.262;2023-11-22T04:28:51;13.90;;;10.97;;
12076;SDS011;12420;42.676;23.262;2023-11-22T04:31:18;17.97;;;10.67;;
12076;SDS011;12420;42.676;23.262;2023-11-22T04:33:45;14.83;;;10.83;;
12076;SDS011;12420;42.676;23.262;2023-11-22T04:36:12;14.83;;;10.57;;
12076;SDS011;12420;42.676;23.262;2023-11-22T04:38:39;14.83;;;10.80;;
12076;SDS011;12420;42.676;23.262;2023-11-22T04:41:07;16.57;;;10.60;;
12076;SDS011;12420;42.676;23.262;2023-11-22T04:43:34;16.93;;;11.37;;
12076;SDS011;12420;42.676;23.262;2023-11-22T04:46:02;15.10;;;10.53;;
12076;SDS011;12420;42.676;23.262;2023-11-22T04:48:29;16.50;;;11.07;;
12076;SDS011;12420;42.676;23.262;2023-11-22T04:50:56;16.33;;;11.63;;
12076;SDS011;12420;42.676;23.262;2023-11-22T04:53:22;20.07;;;12.40;;
12076;SDS011;12420;42.676;23.262;2023-11-22T04:55:49;16.03;;;11.50;;
12076;SDS011;12420;42.676;23.262;2023-11-22T04:58:17;15.73;;;11.50;;
12076;SDS011;12420;42.676;23.262;2023-11-22T05:00:44;18.60;;;11.63;;
12076;SDS011;12420;42.676;23.262;2023-11-22T05:03:11;14.00;;;11.70;;
12076;SDS011;12420;42.676;23.262;2023-11-22T05:05:38;19.90;;;12.20;;
12076;SDS011;12420;42.676;23.262;2023-11-22T05:08:05;16.40;;;12.60;;
12076;SDS011;12420;42.676;23.262;2023-11-22T05:10:33;17.63;;;12.87;;
12076;SDS011;12420;42.676;23.262;2023-11-22T05:12:59;21.40;;;12.83;;
12076;SDS011;12420;42.676;23.262;2023-11-22T05:15:30;16.90;;;12.17;;
12076;SDS011;12420;42.676;23.262;2023-11-22T05:17:57;20.03;;;14.70;;
12076;SDS011;12420;42.676;23.262;2023-11-22T05:20:24;19.17;;;13.43;;
12076;SDS011;12420;42.676;23.262;2023-11-22T05:22:50;20.73;;;14.03;;
12076;SDS011;12420;42.676;23.262;2023-11-22T05:25:17;19.17;;;14.73;;
12076;SDS011;12420;42.676;23.262;2023-11-22T05:27:44;19.33;;;14.23;;
12076;SDS011;12420;42.676;23.262;2023-11-22T05:30:11;20.13;;;15.10;;
12076;SDS011;12420;42.676;23.262;2023-11-22T05:32:42;24.33;;;16.73;;
12076;SDS011;12420;42.676;23.262;2023-11-22T05:35:08;21.70;;;16.17;;
12076;SDS011;12420;42.676;23.262;2023-11-22T05:37:36;21.30;;;15.50;;
12076;SDS011;12420;42.676;23.262;2023-11-22T05:40:03;26.30;;;17.47;;
12076;SDS011;12420;42.676;23.262;2023-11-22T05:42:31;28.57;;;20.73;;
12076;SDS011;12420;42.676;23.262;2023-11-22T05:45:00;25.03;;;18.30;;
12076;SDS011;12420;42.676;23.262;2023-11-22T05:47:29;25.20;;;18.80;;
12076;SDS011;12420;42.676;23.262;2023-11-22T05:49:57;24.03;;;17.17;;
12076;SDS011;12420;42.676;23.262;2023-11-22T05:52:24;27.47;;;19.43;;
12076;SDS011;12420;42.676;23.262;2023-11-22T05:54:51;24.30;;;18.57;;
12076;SDS011;12420;42.676;23.262;2023-11-22T05:57:18;24.73;;;17.53;;
12076;SDS011;12420;42.676;23.262;2023-11-22T05:59:46;22.03;;;17.63;;
12076;SDS011;12420;42.676;23.262;2023-11-22T06:02:13;21.20;;;16.97;;
12076;SDS011;12420;42.676;23.262;2023-11-22T06:04:39;23.10;;;17.90;;
12076;SDS011;12420;42.676;23.262;2023-11-22T06:07:08;23.70;;;17.70;;
12076;SDS011;12420;42.676;23.262;2023-11-22T06:09:35;28.77;;;20.03;;
12076;SDS011;12420;42.676;23.262;2023-11-22T06:12:02;25.90;;;18.63;;
12076;SDS011;12420;42.676;23.262;2023-11-22T06:14:30;25.27;;;19.10;;
12076;SDS011;12420;42.676;23.262;2023-11-22T06:16:57;30.03;;;23.83;;
12076;SDS011;12420;42.676;23.262;2023-11-22T06:19:24;38.93;;;27.07;;
12076;SDS011;12420;42.676;23.262;2023-11-22T06:21:51;27.53;;;23.03;;
12076;SDS011;12420;42.676;23.262;2023-11-22T06:24:19;27.30;;;20.10;;
12076;SDS011;12420;42.676;23.262;2023-11-22T06:26:48;28.97;;;21.77;;
12076;SDS011;12420;42.676;23.262;2023-11-22T06:29:15;26.43;;;20.20;;
12076;SDS011;12420;42.676;23.262;2023-11-22T06:31:42;28.03;;;21.33;;
12076;SDS011;12420;42.676;23.262;2023-11-22T06:34:09;26.20;;;20.13;;
12076;SDS011;12420;42.676;23.262;2023-11-22T06:36:35;25.00;;;20.47;;
12076;SDS011;12420;42.676;23.262;2023-11-22T06:39:03;26.43;;;19.63;;
12076;SDS011;12420;42.676;23.262;2023-11-22T06:41:32;23.30;;;18.40;;
12076;SDS011;12420;42.676;23.262;2023-11-22T06:43:59;25.17;;;18.40;;
12076;SDS011;12420;42.676;23.262;2023-11-22T06:46:27;31.60;;;19.97;;
12076;SDS011;12420;42.676;23.262;2023-11-22T06:48:54;30.13;;;20.27;;
12076;SDS011;12420;42.676;23.262;2023-11-22T06:51:25;25.80;;;18.63;;
12076;SDS011;12420;42.676;23.262;2023-11-22T06:53:52;28.13;;;19.37;;
12076;SDS011;12420;42.676;23.262;2023-11-22T06:56:19;30.23;;;21.30;;
12076;SDS011;12420;42.676;23.262;2023-11-22T06:58:48;28.27;;;20.37;;
12076;SDS011;12420;42.676;23.262;2023-11-22T07:01:16;28.53;;;21.77;;
12076;SDS011;12420;42.676;23.262;2023-11-22T07:03:43;33.43;;;22.90;;
12076;SDS011;12420;42.676;23.262;2023-11-22T07:06:10;30.33;;;23.10;;
12076;SDS011;12420;42.676;23.262;2023-11-22T07:08:37;30.27;;;24.60;;
12076;SDS011;12420;42.676;23.262;2023-11-22T07:11:08;32.17;;;24.60;;
12076;SDS011;12420;42.676;23.262;2023-11-22T07:13:38;39.67;;;29.87;;
12076;SDS011;12420;42.676;23.262;2023-11-22T07:16:07;36.27;;;27.07;;
12076;SDS011;12420;42.676;23.262;2023-11-22T07:18:35;32.83;;;25.47;;
12076;SDS011;12420;42.676;23.262;2023-11-22T07:21:02;33.87;;;25.07;;
12076;SDS011;12420;42.676;23.262;2023-11-22T07:23:29;28.87;;;21.83;;
12076;SDS011;12420;42.676;23.262;2023-11-22T07:25:56;31.87;;;24.63;;
12076;SDS011;12420;42.676;23.262;2023-11-22T07:28:23;30.10;;;21.70;;
12076;SDS011;12420;42.676;23.262;2023-11-22T07:30:51;26.00;;;21.03;;
12076;SDS011;12420;42.676;23.262;2023-11-22T07:33:19;34.90;;;23.10;;
12076;SDS011;12420;42.676;23.262;2023-11-22T07:35:46;25.57;;;20.47;;
12076;SDS011;12420;42.676;23.262;2023-11-22T07:38:13;23.87;;;18.80;;
12076;SDS011;12420;42.676;23.262;2023-11-22T07:40:43;27.90;;;21.40;;
12076;SDS011;12420;42.676;23.262;2023-11-22T07:43:10;30.53;;;21.10;;
12076;SDS011;12420;42.676;23.262;2023-11-22T07:45:37;24.30;;;20.37;;
12076;SDS011;12420;42.676;23.262;2023-11-22T07:48:03;25.23;;;20.43;;
12076;SDS011;12420;42.676;23.262;2023-11-22T07:50:32;23.77;;;17.83;;
12076;SDS011;12420;42.676;23.262;2023-11-22T07:53:01;27.30;;;21.53;;
12076;SDS011;12420;42.676;23.262;2023-11-22T07:55:29;19.77;;;15.13;;
12076;SDS011;12420;42.676;23.262;2023-11-22T07:57:57;24.80;;;19.47;;
12076;SDS011;12420;42.676;23.262;2023-11-22T08:00:24;21.60;;;14.83;;
12076;SDS011;12420;42.676;23.262;2023-11-22T08:02:51;25.33;;;17.93;;
12076;SDS011;12420;42.676;23.262;2023-11-22T08:05:20;27.70;;;18.33;;
12076;SDS011;12420;42.676;23.262;2023-11-22T08:07:52;30.33;;;18.47;;
12076;SDS011;12420;42.676;23.262;2023-11-22T08:10:18;22.10;;;16.43;;
12076;SDS011;12420;42.676;23.262;2023-11-22T08:12:50;14.43;;;12.47;;
12076;SDS011;12420;42.676;23.262;2023-11-22T08:15:18;16.73;;;13.60;;
12076;SDS011;12420;42.676;23.262;2023-11-22T08:17:45;22.37;;;14.63;;
12076;SDS011;12420;42.676;23.262;2023-11-22T08:20:12;22.57;;;15.03;;
12076;SDS011;12420;42.676;23.262;2023-11-22T08:22:43;22.03;;;15.60;;
12076;SDS011;12420;42.676;23.262;2023-11-22T08:25:14;22.10;;;16.97;;
12076;SDS011;12420;42.676;23.262;2023-11-22T08:27:41;23.33;;;17.80;;
12076;SDS011;12420;42.676;23.262;2023-11-22T08:30:08;25.07;;;16.50;;
12076;SDS011;12420;42.676;23.262;2023-11-22T08:32:38;22.70;;;14.47;;
12076;SDS011;12420;42.676;23.262;2023-11-22T08:35:08;22.07;;;16.47;;
12076;SDS011;12420;42.676;23.262;2023-11-22T08:37:39;19.83;;;14.80;;
12076;SDS011;12420;42.676;23.262;2023-11-22T08:40:07;24.43;;;15.17;;
12076;SDS011;12420;42.676;23.262;2023-11-22T08:42:37;27.47;;;19.90;;
12076;SDS011;12420;42.676;23.262;2023-11-22T08:45:06;26.50;;;21.83;;
12076;SDS011;12420;42.676;23.262;2023-11-22T08:47:34;29.10;;;22.63;;
12076;SDS011;12420;42.676;23.262;2023-11-22T08:50:01;31.40;;;23.43;;
12076;SDS011;12420;42.676;23.262;2023-11-22T08:52:28;31.63;;;22.50;;
12076;SDS011;12420;42.676;23.262;2023-11-22T08:54:56;25.87;;;20.80;;
12076;SDS011;12420;42.676;23.262;2023-11-22T08:57:25;35.20;;;27.87;;
12076;SDS011;12420;42.676;23.262;2023-11-22T08:59:54;38.70;;;29.77;;
12076;SDS011;12420;42.676;23.262;2023-11-22T09:02:21;51.53;;;38.77;;
12076;SDS011;12420;42.676;23.262;2023-11-22T09:04:50;50.73;;;39.10;;
12076;SDS011;12420;42.676;23.262;2023-11-22T09:07:17;80.63;;;59.03;;
12076;SDS011;12420;42.676;23.262;2023-11-22T09:09:49;47.83;;;35.77;;
12076;SDS011;12420;42.676;23.262;2023-11-22T09:12:16;47.40;;;32.53;;
12076;SDS011;12420;42.676;23.262;2023-11-22T09:14:44;60.67;;;41.83;;
12076;SDS011;12420;42.676;23.262;2023-11-22T09:17:13;50.67;;;36.53;;
12076;SDS011;12420;42.676;23.262;2023-11-22T09:19:41;32.23;;;22.87;;
12076;SDS011;12420;42.676;23.262;2023-11-22T09:22:08;25.17;;;18.03;;
12076;SDS011;12420;42.676;23.262;2023-11-22T09:24:36;29.60;;;22.87;;
12076;SDS011;12420;42.676;23.262;2023-11-22T09:27:03;27.93;;;19.40;;
12076;SDS011;12420;42.676;23.262;2023-11-22T09:29:31;25.03;;;18.80;;
12076;SDS011;12420;42.676;23.262;2023-11-22T09:31:59;33.17;;;22.20;;
12076;SDS011;12420;42.676;23.262;2023-11-22T09:34:29;20.67;;;16.43;;
12076;SDS011;12420;42.676;23.262;2023-11-22T09:36:56;20.70;;;16.07;;
12076;SDS011;12420;42.676;23.262;2023-11-22T09:39:24;22.90;;;16.70;;
12076;SDS011;12420;42.676;23.262;2023-11-22T09:41:51;21.43;;;14.33;;
12076;SDS011;12420;42.676;23.262;2023-11-22T09:44:19;20.23;;;15.40;;
12076;SDS011;12420;42.676;23.262;2023-11-22T09:46:47;20.90;;;14.63;;
12076;SDS011;12420;42.676;23.262;2023-11-22T09:49:19;19.13;;;13.53;;
12076;SDS011;12420;42.676;23.262;2023-11-22T09:51:52;17.33;;;13.37;;
12076;SDS011;12420;42.676;23.262;2023-11-22T09:54:22;15.27;;;12.93;;
12076;SDS011;12420;42.676;23.262;2023-11-22T09:56:56;17.73;;;12.83;;
12076;SDS011;12420;42.676;23.262;2023-11-22T09:59:26;15.57;;;12.70;;
12076;SDS011;12420;42.676;23.262;2023-11-22T10:01:53;14.67;;;12.20;;
12076;SDS011;12420;42.676;23.262;2023-11-22T10:04:20;16.50;;;12.87;;
12076;SDS011;12420;42.676;23.262;2023-11-22T10:06:50;16.60;;;13.30;;
12076;SDS011;12420;42.676;23.262;2023-11-22T10:09:18;34.43;;;14.37;;
12076;SDS011;12420;42.676;23.262;2023-11-22T10:11:49;19.13;;;14.27;;
12076;SDS011;12420;42.676;23.262;2023-11-22T10:14:21;14.93;;;12.27;;
12076;SDS011;12420;42.676;23.262;2023-11-22T10:16:57;13.57;;;11.63;;
12076;SDS011;12420;42.676;23.262;2023-11-22T10:19:25;15.33;;;12.80;;
12076;SDS011;12420;42.676;23.262;2023-11-22T10:22:02;18.70;;;14.50;;
12076;SDS011;12420;42.676;23.262;2023-11-22T10:24:31;16.70;;;14.37;;
12076;SDS011;12420;42.676;23.262;2023-11-22T10:26:59;20.83;;;16.97;;
12076;SDS011;12420;42.676;23.262;2023-11-22T10:29:25;18.60;;;16.53;;
12076;SDS011;12420;42.676;23.262;2023-11-22T10:31:53;20.80;;;16.43;;
12076;SDS011;12420;42.676;23.262;2023-11-22T10:34:20;19.23;;;15.13;;
12076;SDS011;12420;42.676;23.262;2023-11-22T10:36:47;17.23;;;14.40;;
12076;SDS011;12420;42.676;23.262;2023-11-22T10:39:14;16.70;;;14.57;;
12076;SDS011;12420;42.676;23.262;2023-11-22T10:41:47;17.07;;;15.07;;
12076;SDS011;12420;42.676;23.262;2023-11-22T10:44:16;19.43;;;15.63;;
12076;SDS011;12420;42.676;23.262;2023-11-22T10:46:47;22.60;;;15.17;;
12076;SDS011;12420;42.676;23.262;2023-11-22T10:49:14;17.47;;;15.07;;
12076;SDS011;12420;42.676;23.262;2023-11-22T10:51:40;20.67;;;15.83;;
12076;SDS011;12420;42.676;23.262;2023-11-22T10:54:10;23.00;;;16.30;;
12076;SDS011;12420;42.676;23.262;2023-11-22T10:56:38;21.03;;;16.77;;
12076;SDS011;12420;42.676;23.262;2023-11-22T10:59:10;20.43;;;16.53;;
12076;SDS011;12420;42.676;23.262;2023-11-22T11:01:42;19.03;;;15.90;;
12076;SDS011;12420;42.676;23.262;2023-11-22T11:04:15;18.60;;;16.57;;
12076;SDS011;12420;42.676;23.262;2023-11-22T11:06:47;21.43;;;15.90;;
12076;SDS011;12420;42.676;23.262;2023-11-22T11:09:18;22.30;;;17.50;;
12076;SDS011;12420;42.676;23.262;2023-11-22T11:11:50;23.40;;;19.23;;
12076;SDS011;12420;42.676;23.262;2023-11-22T11:14:18;27.70;;;21.73;;
12076;SDS011;12420;42.676;23.262;2023-11-22T11:16:47;24.63;;;19.27;;
12076;SDS011;12420;42.676;23.262;2023-11-22T11:19:19;27.67;;;20.63;;
12076;SDS011;12420;42.676;23.262;2023-11-22T11:21:47;28.30;;;21.83;;
12076;SDS011;12420;42.676;23.262;2023-11-22T11:24:15;27.97;;;21.70;;
12076;SDS011;12420;42.676;23.262;2023-11-22T11:26:46;28.23;;;22.63;;
12076;SDS011;12420;42.676;23.262;2023-11-22T11:29:31;27.93;;;23.23;;
12076;SDS011;12420;42.676;23.262;2023-11-22T11:31:58;24.77;;;21.30;;
12076;SDS011;12420;42.676;23.262;2023-11-22T11:34:26;24.07;;;20.67;;
12076;SDS011;12420;42.676;23.262;2023-11-22T11:36:54;25.20;;;20.00;;
12076;SDS011;12420;42.676;23.262;2023-11-22T11:39:24;27.53;;;21.10;;
12076;SDS011;12420;42.676;23.262;2023-11-22T11:42:07;27.10;;;21.70;;
12076;SDS011;12420;42.676;23.262;2023-11-22T11:44:36;28.70;;;22.23;;
12076;SDS011;12420;42.676;23.262;2023-11-22T11:47:08;26.87;;;22.30;;
12076;SDS011;12420;42.676;23.262;2023-11-22T11:49:36;29.83;;;23.17;;
12076;SDS011;12420;42.676;23.262;2023-11-22T11:52:04;26.30;;;22.03;;
12076;SDS011;12420;42.676;23.262;2023-11-22T11:54:33;27.90;;;21.13;;
12076;SDS011;12420;42.676;23.262;2023-11-22T11:57:00;29.90;;;21.70;;
12076;SDS011;12420;42.676;23.262;2023-11-22T11:59:27;40.90;;;29.23;;
12076;SDS011;12420;42.676;23.262;2023-11-22T12:01:59;34.07;;;23.63;;
12076;SDS011;12420;42.676;23.262;2023-11-22T12:04:26;44.07;;;28.43;;
12076;SDS011;12420;42.676;23.262;2023-11-22T12:06:53;42.10;;;29.00;;
12076;SDS011;12420;42.676;23.262;2023-11-22T12:09:23;35.87;;;25.13;;
12076;SDS011;12420;42.676;23.262;2023-11-22T12:11:51;48.07;;;30.10;;
12076;SDS011;12420;42.676;23.262;2023-11-22T12:14:19;45.13;;;27.97;;
12076;SDS011;12420;42.676;23.262;2023-11-22T12:16:47;46.83;;;27.23;;
12076;SDS011;12420;42.676;23.262;2023-11-22T12:19:22;38.57;;;28.17;;
12076;SDS011;12420;42.676;23.262;2023-11-22T12:21:50;47.07;;;39.43;;
12076;SDS011;12420;42.676;23.262;2023-11-22T12:24:17;55.70;;;43.93;;
12076;SDS011;12420;42.676;23.262;2023-11-22T12:26:45;64.50;;;48.73;;
12076;SDS011;12420;42.676;23.262;2023-11-22T12:29:13;58.10;;;47.93;;
12076;SDS011;12420;42.676;23.262;2023-11-22T12:31:44;52.80;;;43.87;;
12076;SDS011;12420;42.676;23.262;2023-11-22T12:34:14;56.43;;;45.13;;
12076;SDS011;12420;42.676;23.262;2023-11-22T12:36:46;46.43;;;38.87;;
12076;SDS011;12420;42.676;23.262;2023-11-22T12:39:14;45.73;;;34.83;;
12076;SDS011;12420;42.676;23.262;2023-11-22T12:41:42;35.30;;;28.17;;
12076;SDS011;12420;42.676;23.262;2023-11-22T12:44:10;28.40;;;22.83;;
12076;SDS011;12420;42.676;23.262;2023-11-22T12:46:47;26.63;;;22.40;;
12076;SDS011;12420;42.676;23.262;2023-11-22T12:49:17;35.77;;;23.10;;
12076;SDS011;12420;42.676;23.262;2023-11-22T12:51:52;34.80;;;24.77;;
12076;SDS011;12420;42.676;23.262;2023-11-22T12:54:20;29.63;;;24.00;;
12076;SDS011;12420;42.676;23.262;2023-11-22T12:56:51;28.07;;;23.30;;
12076;SDS011;12420;42.676;23.262;2023-11-22T12:59:23;32.27;;;23.83;;
12076;SDS011;12420;42.676;23.262;2023-11-22T13:01:52;26.67;;;19.63;;
12076;SDS011;12420;42.676;23.262;2023-11-22T13:04:19;23.73;;;18.27;;
12076;SDS011;12420;42.676;23.262;2023-11-22T13:06:47;22.60;;;17.83;;
12076;SDS011;12420;42.676;23.262;2023-11-22T13:09:18;24.93;;;18.67;;
12076;SDS011;12420;42.676;23.262;2023-11-22T13:11:45;26.13;;;17.93;;
12076;SDS011;12420;42.676;23.262;2023-11-22T13:14:14;31.30;;;20.63;;
12076;SDS011;12420;42.676;23.262;2023-11-22T13:16:41;27.63;;;19.83;;
12076;SDS011;12420;42.676;23.262;2023-11-22T13:19:10;31.30;;;22.90;;
12076;SDS011;12420;42.676;23.262;2023-11-22T13:21:37;20.37;;;16.70;;
12076;SDS011;12420;42.676;23.262;2023-11-22T13:24:06;22.47;;;16.97;;
12076;SDS011;12420;42.676;23.262;2023-11-22T13:26:35;18.73;;;15.07;;
12076;SDS011;12420;42.676;23.262;2023-11-22T13:29:02;20.97;;;16.80;;
12076;SDS011;12420;42.676;23.262;2023-11-22T13:31:31;20.73;;;17.63;;
12076;SDS011;12420;42.676;23.262;2023-11-22T13:33:58;21.23;;;17.90;;
12076;SDS011;12420;42.676;23.262;2023-11-22T13:36:26;24.33;;;17.73;;
12076;SDS011;12420;42.676;23.262;2023-11-22T13:38:57;22.80;;;16.60;;
12076;SDS011;12420;42.676;23.262;2023-11-22T13:41:24;29.77;;;21.63;;
12076;SDS011;12420;42.676;23.262;2023-11-22T13:43:52;26.27;;;19.20;;
12076;SDS011;12420;42.676;23.262;2023-11-22T13:46:20;29.73;;;22.93;;
12076;SDS011;12420;42.676;23.262;2023-11-22T13:48:46;30.13;;;22.53;;
12076;SDS011;12420;42.676;23.262;2023-11-22T13:51:13;29.27;;;23.43;;
12076;SDS011;12420;42.676;23.262;2023-11-22T13:53:40;39.40;;;32.97;;
12076;SDS011;12420;42.676;23.262;2023-11-22T13:56:09;49.90;;;38.93;;
12076;SDS011;12420;42.676;23.262;2023-11-22T13:58:36;46.83;;;33.77;;
12076;SDS011;12420;42.676;23.262;2023-11-22T14:01:08;48.77;;;37.40;;
12076;SDS011;12420;42.676;23.262;2023-11-22T14:03:41;48.87;;;37.03;;
12076;SDS011;12420;42.676;23.262;2023-11-22T14:06:08;46.30;;;36.10;;
12076;SDS011;12420;42.676;23.262;2023-11-22T14:08:38;44.00;;;35.17;;
12076;SDS011;12420;42.676;23.262;2023-11-22T14:11:05;48.43;;;39.27;;
12076;SDS011;12420;42.676;23.262;2023-11-22T14:13:32;50.60;;;39.40;;